sensor_id;sensor_type;location;lat;lon;timestamp;pressure;altitude;pressure_sealevel;temperature;humidity
30343;BME280;17145;49.902;8.680;'2023-04-29 01:58:45';99710;;;12;57
30343;BME280;17145;49.902;8.680;'2023-04-29 02:01:13';99710;;;12;57
30343;BME280;17145;49.902;8.680;'2023-04-29 02:03:40';99700;;;12;57
30343;BME280;17145;49.902;8.680;'2023-04-29 02:06:08';99710;;;12;57
30343;BME280;17145;49.902;8.680;'2023-04-29 02:08:35';99700;;;12;57
30343;BME280;17145;49.902;8.680;'2023-04-29 02:11:02';99700;;;12;57
30343;BME280;17145;49.902;8.680;'2023-04-29 02:13:30';99700;;;12;57
30343;BME280;17145;49.902;8.680;'2023-04-29 02:15:58';99700;;;12;57
30343;BME280;17145;49.902;8.680;'2023-04-29 02:18:25';99700;;;12;57
30343;BME280;17145;49.902;8.680;'2023-04-29 02:20:52';99700;;;12;57
30343;BME280;17145;49.902;8.680;'2023-04-29 02:23:20';99700;;;12;57
30343;BME280;17145;49.902;8.680;'2023-04-29 02:25:47';99710;;;12;56
30343;BME280;17145;49.902;8.680;'2023-04-29 02:28:14';99710;;;12;56
30343;BME280;17145;49.902;8.680;'2023-04-29 02:30:42';99710;;;12;56
30343;BME280;17145;49.902;8.680;'2023-04-29 02:33:09';99710;;;12;56
30343;BME280;17145;49.902;8.680;'2023-04-29 02:35:37';99710;;;12;56
30343;BME280;17145;49.902;8.680;'2023-04-29 02:38:04';99700;;;12;56
30343;BME280;17145;49.902;8.680;'2023-04-29 02:40:32';99700;;;12;56
30343;BME280;17145;49.902;8.680;'2023-04-29 02:42:59';99710;;;12;56
30343;BME280;17145;49.902;8.680;'2023-04-29 02:45:26';99710;;;12;56
30343;BME280;17145;49.902;8.680;'2023-04-29 02:47:54';99710;;;12;56
30343;BME280;17145;49.902;8.680;'2023-04-29 02:50:21';99710;;;12;56
30343;BME280;17145;49.902;8.680;'2023-04-29 02:52:50';99710;;;11;57
30343;BME280;17145;49.902;8.680;'2023-04-29 02:55:18';99710;;;12;57
30343;BME280;17145;49.902;8.680;'2023-04-29 02:57:46';99710;;;11;57
30343;BME280;17145;49.902;8.680;'2023-04-29 03:00:14';99710;;;12;57
30343;BME280;17145;49.902;8.680;'2023-04-29 03:02:42';99720;;;12;57
30343;BME280;17145;49.902;8.680;'2023-04-29 03:05:10';99720;;;11;57
30343;BME280;17145;49.902;8.680;'2023-04-29 03:07:47';99720;;;12;57
30343;BME280;17145;49.902;8.680;'2023-04-29 03:10:24';99720;;;11;57
30343;BME280;17145;49.902;8.680;'2023-04-29 03:13:02';99720;;;12;57
30343;BME280;17145;49.902;8.680;'2023-04-29 03:15:37';99720;;;12;57
30343;BME280;17145;49.902;8.680;'2023-04-29 03:18:09';99720;;;12;58
30343;BME280;17145;49.902;8.680;'2023-04-29 03:20:37';99720;;;12;58
30343;BME280;17145;49.902;8.680;'2023-04-29 03:23:04';99720;;;12;58
30343;BME280;17145;49.902;8.680;'2023-04-29 03:25:32';99720;;;12;58
30343;BME280;17145;49.902;8.680;'2023-04-29 03:28:12';99720;;;12;58
30343;BME280;17145;49.902;8.680;'2023-04-29 03:30:49';99730;;;12;58
30343;BME280;17145;49.902;8.680;'2023-04-29 03:33:25';99730;;;12;58
30343;BME280;17145;49.902;8.680;'2023-04-29 03:36:06';99730;;;12;59
30343;BME280;17145;49.902;8.680;'2023-04-29 03:38:40';99730;;;12;59
30343;BME280;17145;49.902;8.680;'2023-04-29 03:41:14';99730;;;12;60
30343;BME280;17145;49.902;8.680;'2023-04-29 03:43:46';99720;;;12;59
30343;BME280;17145;49.902;8.680;'2023-04-29 03:46:16';99720;;;12;59
30343;BME280;17145;49.902;8.680;'2023-04-29 03:48:43';99720;;;12;59
30343;BME280;17145;49.902;8.680;'2023-04-29 03:51:11';99730;;;12;59
30343;BME280;17145;49.902;8.680;'2023-04-29 03:53:38';99730;;;12;59
30343;BME280;17145;49.902;8.680;'2023-04-29 03:56:06';99720;;;12;59
30343;BME280;17145;49.902;8.680;'2023-04-29 03:58:34';99730;;;12;59
30343;BME280;17145;49.902;8.680;'2023-04-29 04:01:01';99730;;;12;59
30343;BME280;17145;49.902;8.680;'2023-04-29 04:03:28';99720;;;12;59
30343;BME280;17145;49.902;8.680;'2023-04-29 04:05:56';99720;;;12;58
30343;BME280;17145;49.902;8.680;'2023-04-29 04:08:23';99730;;;12;59
30343;BME280;17145;49.902;8.680;'2023-04-29 04:10:52';99730;;;12;59
30343;BME280;17145;49.902;8.680;'2023-04-29 04:13:19';99730;;;12;59
30343;BME280;17145;49.902;8.680;'2023-04-29 04:15:47';99730;;;12;58
30343;BME280;17145;49.902;8.680;'2023-04-29 04:18:14';99740;;;12;58
30343;BME280;17145;49.902;8.680;'2023-04-29 04:20:42';99740;;;12;58
30343;BME280;17145;49.902;8.680;'2023-04-29 04:23:09';99740;;;12;59
30343;BME280;17145;49.902;8.680;'2023-04-29 04:25:36';99750;;;12;59
30343;BME280;17145;49.902;8.680;'2023-04-29 04:28:04';99750;;;12;59
30343;BME280;17145;49.902;8.680;'2023-04-29 04:30:31';99760;;;12;59
30343;BME280;17145;49.902;8.680;'2023-04-29 04:32:58';99760;;;12;59
30343;BME280;17145;49.902;8.680;'2023-04-29 04:35:25';99760;;;12;59
30343;BME280;17145;49.902;8.680;'2023-04-29 04:37:53';99760;;;12;59
30343;BME280;17145;49.902;8.680;'2023-04-29 04:40:20';99760;;;12;59
30343;BME280;17145;49.902;8.680;'2023-04-29 04:42:47';99760;;;12;59
30343;BME280;17145;49.902;8.680;'2023-04-29 04:45:15';99770;;;12;59
30343;BME280;17145;49.902;8.680;'2023-04-29 04:47:42';99770;;;12;59
30343;BME280;17145;49.902;8.680;'2023-04-29 04:50:10';99760;;;12;59
30343;BME280;17145;49.902;8.680;'2023-04-29 04:52:37';99760;;;12;59
30343;BME280;17145;49.902;8.680;'2023-04-29 04:55:06';99760;;;12;60
30343;BME280;17145;49.902;8.680;'2023-04-29 04:57:33';99760;;;12;59
30343;BME280;17145;49.902;8.680;'2023-04-29 05:00:00';99760;;;12;59
30343;BME280;17145;49.902;8.680;'2023-04-29 05:02:28';99760;;;12;59
30343;BME280;17145;49.902;8.680;'2023-04-29 05:04:55';99760;;;12;59
30343;BME280;17145;49.902;8.680;'2023-04-29 05:07:23';99760;;;12;59
30343;BME280;17145;49.902;8.680;'2023-04-29 05:09:50';99760;;;12;59
30343;BME280;17145;49.902;8.680;'2023-04-29 05:12:17';99760;;;12;59
30343;BME280;17145;49.902;8.680;'2023-04-29 05:14:45';99760;;;12;59
30343;BME280;17145;49.902;8.680;'2023-04-29 05:17:12';99760;;;12;59
30343;BME280;17145;49.902;8.680;'2023-04-29 05:19:40';99760;;;13;59
30343;BME280;17145;49.902;8.680;'2023-04-29 05:22:08';99760;;;12;59
30343;BME280;17145;49.902;8.680;'2023-04-29 05:24:35';99760;;;13;59
30343;BME280;17145;49.902;8.680;'2023-04-29 05:27:04';99760;;;12;59
30343;BME280;17145;49.902;8.680;'2023-04-29 05:29:31';99760;;;12;59
30343;BME280;17145;49.902;8.680;'2023-04-29 05:31:58';99770;;;12;59
30343;BME280;17145;49.902;8.680;'2023-04-29 05:34:26';99760;;;12;59
30343;BME280;17145;49.902;8.680;'2023-04-29 05:36:53';99770;;;12;59
30343;BME280;17145;49.902;8.680;'2023-04-29 05:39:21';99770;;;12;58
30343;BME280;17145;49.902;8.680;'2023-04-29 05:41:48';99770;;;12;58
30343;BME280;17145;49.902;8.680;'2023-04-29 05:44:16';99770;;;12;59
30343;BME280;17145;49.902;8.680;'2023-04-29 05:46:43';99770;;;12;59
30343;BME280;17145;49.902;8.680;'2023-04-29 05:49:11';99780;;;12;59
30343;BME280;17145;49.902;8.680;'2023-04-29 05:51:38';99780;;;12;59
30343;BME280;17145;49.902;8.680;'2023-04-29 05:54:06';99780;;;12;59
30343;BME280;17145;49.902;8.680;'2023-04-29 05:56:33';99780;;;12;59
30343;BME280;17145;49.902;8.680;'2023-04-29 05:59:01';99780;;;12;59
30343;BME280;17145;49.902;8.680;'2023-04-29 06:01:28';99780;;;12;58
30343;BME280;17145;49.902;8.680;'2023-04-29 06:03:56';99790;;;12;58
30343;BME280;17145;49.902;8.680;'2023-04-29 06:06:23';99790;;;12;58
30343;BME280;17145;49.902;8.680;'2023-04-29 06:08:51';99800;;;12;58
30343;BME280;17145;49.902;8.680;'2023-04-29 06:11:18';99800;;;12;58
30343;BME280;17145;49.902;8.680;'2023-04-29 06:13:45';99800;;;12;58
30343;BME280;17145;49.902;8.680;'2023-04-29 06:16:13';99810;;;12;58
30343;BME280;17145;49.902;8.680;'2023-04-29 06:18:40';99810;;;12;58
30343;BME280;17145;49.902;8.680;'2023-04-29 06:21:09';99810;;;12;58
30343;BME280;17145;49.902;8.680;'2023-04-29 06:23:37';99810;;;12;58
30343;BME280;17145;49.902;8.680;'2023-04-29 06:26:05';99810;;;12;58
30343;BME280;17145;49.902;8.680;'2023-04-29 06:28:32';99820;;;12;57
30343;BME280;17145;49.902;8.680;'2023-04-29 06:31:00';99820;;;12;57
30343;BME280;17145;49.902;8.680;'2023-04-29 06:33:27';99820;;;12;57
30343;BME280;17145;49.902;8.680;'2023-04-29 06:35:55';99820;;;12;57
30343;BME280;17145;49.902;8.680;'2023-04-29 06:38:22';99820;;;12;57
30343;BME280;17145;49.902;8.680;'2023-04-29 06:40:50';99820;;;12;57
30343;BME280;17145;49.902;8.680;'2023-04-29 06:43:17';99830;;;12;57
30343;BME280;17145;49.902;8.680;'2023-04-29 06:45:45';99830;;;12;57
30343;BME280;17145;49.902;8.680;'2023-04-29 06:48:12';99830;;;12;57
30343;BME280;17145;49.902;8.680;'2023-04-29 06:50:40';99840;;;12;57
30343;BME280;17145;49.902;8.680;'2023-04-29 06:53:07';99840;;;12;57
30343;BME280;17145;49.902;8.680;'2023-04-29 06:55:34';99840;;;12;56
30343;BME280;17145;49.902;8.680;'2023-04-29 06:58:02';99840;;;12;56
30343;BME280;17145;49.902;8.680;'2023-04-29 07:00:29';99840;;;12;57
30343;BME280;17145;49.902;8.680;'2023-04-29 07:02:57';99850;;;12;57
30343;BME280;17145;49.902;8.680;'2023-04-29 07:05:24';99850;;;12;56
30343;BME280;17145;49.902;8.680;'2023-04-29 07:07:52';99860;;;12;56
30343;BME280;17145;49.902;8.680;'2023-04-29 07:10:19';99860;;;12;56
30343;BME280;17145;49.902;8.680;'2023-04-29 07:12:47';99860;;;12;57
30343;BME280;17145;49.902;8.680;'2023-04-29 07:15:14';99860;;;12;56
30343;BME280;17145;49.902;8.680;'2023-04-29 07:17:42';99860;;;13;56
30343;BME280;17145;49.902;8.680;'2023-04-29 07:20:10';99870;;;12;56
30343;BME280;17145;49.902;8.680;'2023-04-29 07:22:37';99870;;;12;56
30343;BME280;17145;49.902;8.680;'2023-04-29 07:25:05';99880;;;12;56
30343;BME280;17145;49.902;8.680;'2023-04-29 07:27:33';99880;;;13;56
30343;BME280;17145;49.902;8.680;'2023-04-29 07:30:00';99880;;;12;56
30343;BME280;17145;49.902;8.680;'2023-04-29 07:32:29';99890;;;13;56
30343;BME280;17145;49.902;8.680;'2023-04-29 07:34:56';99890;;;12;56
30343;BME280;17145;49.902;8.680;'2023-04-29 07:37:24';99900;;;12;57
30343;BME280;17145;49.902;8.680;'2023-04-29 07:39:51';99900;;;12;56
30343;BME280;17145;49.902;8.680;'2023-04-29 07:42:18';99910;;;12;56
30343;BME280;17145;49.902;8.680;'2023-04-29 07:44:46';99910;;;13;56
30343;BME280;17145;49.902;8.680;'2023-04-29 07:47:13';99910;;;12;56
30343;BME280;17145;49.902;8.680;'2023-04-29 07:49:41';99920;;;13;56
30343;BME280;17145;49.902;8.680;'2023-04-29 07:52:08';99920;;;12;56
30343;BME280;17145;49.902;8.680;'2023-04-29 07:54:35';99920;;;12;56
30343;BME280;17145;49.902;8.680;'2023-04-29 07:57:03';99920;;;13;56
30343;BME280;17145;49.902;8.680;'2023-04-29 07:59:31';99930;;;13;56
30343;BME280;17145;49.902;8.680;'2023-04-29 08:01:59';99930;;;13;56
30343;BME280;17145;49.902;8.680;'2023-04-29 08:04:27';99930;;;13;56
30343;BME280;17145;49.902;8.680;'2023-04-29 08:06:56';99940;;;13;55
30343;BME280;17145;49.902;8.680;'2023-04-29 08:09:23';99940;;;13;55
30343;BME280;17145;49.902;8.680;'2023-04-29 08:11:51';99940;;;12;55
30343;BME280;17145;49.902;8.680;'2023-04-29 08:14:18';99950;;;13;54
30343;BME280;17145;49.902;8.680;'2023-04-29 08:16:46';99950;;;13;53
30343;BME280;17145;49.902;8.680;'2023-04-29 08:19:13';99950;;;13;53
30343;BME280;17145;49.902;8.680;'2023-04-29 08:21:41';99950;;;13;53
30343;BME280;17145;49.902;8.680;'2023-04-29 08:24:09';99960;;;13;52
30343;BME280;17145;49.902;8.680;'2023-04-29 08:26:36';99960;;;13;52
30343;BME280;17145;49.902;8.680;'2023-04-29 08:29:03';99960;;;13;52
30343;BME280;17145;49.902;8.680;'2023-04-29 08:31:31';99960;;;13;52
30343;BME280;17145;49.902;8.680;'2023-04-29 08:33:58';99970;;;13;52
30343;BME280;17145;49.902;8.680;'2023-04-29 08:36:26';99970;;;13;52
30343;BME280;17145;49.902;8.680;'2023-04-29 08:38:54';99970;;;13;51
30343;BME280;17145;49.902;8.680;'2023-04-29 08:41:21';99980;;;13;51
30343;BME280;17145;49.902;8.680;'2023-04-29 08:43:48';99980;;;13;50
30343;BME280;17145;49.902;8.680;'2023-04-29 08:46:16';99980;;;13;50
30343;BME280;17145;49.902;8.680;'2023-04-29 08:48:43';99980;;;13;50
30343;BME280;17145;49.902;8.680;'2023-04-29 08:51:11';99980;;;13;50
30343;BME280;17145;49.902;8.680;'2023-04-29 08:53:38';99980;;;13;49
30343;BME280;17145;49.902;8.680;'2023-04-29 08:56:06';99980;;;13;50
30343;BME280;17145;49.902;8.680;'2023-04-29 08:58:34';99980;;;13;51
30343;BME280;17145;49.902;8.680;'2023-04-29 09:01:01';99990;;;12;49
30343;BME280;17145;49.902;8.680;'2023-04-29 09:03:29';99990;;;13;49
30343;BME280;17145;49.902;8.680;'2023-04-29 09:05:56';99990;;;13;49
30343;BME280;17145;49.902;8.680;'2023-04-29 09:08:23';99990;;;13;48
30343;BME280;17145;49.902;8.680;'2023-04-29 09:10:54';99990;;;13;48
30343;BME280;17145;49.902;8.680;'2023-04-29 09:13:22';100000;;;13;49
30343;BME280;17145;49.902;8.680;'2023-04-29 09:15:50';100000;;;13;47
30343;BME280;17145;49.902;8.680;'2023-04-29 09:18:17';100000;;;13;48
30343;BME280;17145;49.902;8.680;'2023-04-29 09:20:44';100010;;;13;48
30343;BME280;17145;49.902;8.680;'2023-04-29 09:23:12';100010;;;13;48
30343;BME280;17145;49.902;8.680;'2023-04-29 09:25:39';100010;;;13;47
30343;BME280;17145;49.902;8.680;'2023-04-29 09:28:07';100010;;;13;47
30343;BME280;17145;49.902;8.680;'2023-04-29 09:30:35';100020;;;13;47
30343;BME280;17145;49.902;8.680;'2023-04-29 09:33:02';100020;;;13;46
30343;BME280;17145;49.902;8.680;'2023-04-29 09:35:30';100020;;;13;46
30343;BME280;17145;49.902;8.680;'2023-04-29 09:37:57';100030;;;13;47
30343;BME280;17145;49.902;8.680;'2023-04-29 09:40:25';100030;;;13;46
30343;BME280;17145;49.902;8.680;'2023-04-29 09:42:52';100030;;;13;47
30343;BME280;17145;49.902;8.680;'2023-04-29 09:45:19';100030;;;13;46
30343;BME280;17145;49.902;8.680;'2023-04-29 09:47:47';100030;;;13;46
30343;BME280;17145;49.902;8.680;'2023-04-29 09:50:14';100040;;;13;46
30343;BME280;17145;49.902;8.680;'2023-04-29 09:52:42';100040;;;13;46
30343;BME280;17145;49.902;8.680;'2023-04-29 09:55:09';100040;;;13;46
30343;BME280;17145;49.902;8.680;'2023-04-29 09:57:37';100040;;;13;45
30343;BME280;17145;49.902;8.680;'2023-04-29 10:00:05';100050;;;13;45
30343;BME280;17145;49.902;8.680;'2023-04-29 10:02:33';100060;;;14;46
30343;BME280;17145;49.902;8.680;'2023-04-29 10:05:01';100060;;;14;47
30343;BME280;17145;49.902;8.680;'2023-04-29 10:07:28';100060;;;13;46
30343;BME280;17145;49.902;8.680;'2023-04-29 10:09:56';100060;;;13;46
30343;BME280;17145;49.902;8.680;'2023-04-29 10:12:23';100070;;;14;45
30343;BME280;17145;49.902;8.680;'2023-04-29 10:14:51';100070;;;13;46
30343;BME280;17145;49.902;8.680;'2023-04-29 10:17:18';100070;;;14;45
30343;BME280;17145;49.902;8.680;'2023-04-29 10:19:45';100070;;;14;45
30343;BME280;17145;49.902;8.680;'2023-04-29 10:22:13';100070;;;14;45
30343;BME280;17145;49.902;8.680;'2023-04-29 10:24:41';100080;;;14;45
30343;BME280;17145;49.902;8.680;'2023-04-29 10:27:08';100080;;;14;45
30343;BME280;17145;49.902;8.680;'2023-04-29 10:29:35';100080;;;14;45
30343;BME280;17145;49.902;8.680;'2023-04-29 10:32:03';100080;;;14;45
30343;BME280;17145;49.902;8.680;'2023-04-29 10:34:30';100080;;;14;45
30343;BME280;17145;49.902;8.680;'2023-04-29 10:36:58';100080;;;14;44
30343;BME280;17145;49.902;8.680;'2023-04-29 10:39:28';100090;;;14;44
30343;BME280;17145;49.902;8.680;'2023-04-29 10:41:56';100090;;;14;44
30343;BME280;17145;49.902;8.680;'2023-04-29 10:44:25';100100;;;13;44
30343;BME280;17145;49.902;8.680;'2023-04-29 10:46:53';100100;;;13;44
30343;BME280;17145;49.902;8.680;'2023-04-29 10:49:20';100100;;;14;44
30343;BME280;17145;49.902;8.680;'2023-04-29 10:51:48';100100;;;14;44
30343;BME280;17145;49.902;8.680;'2023-04-29 10:54:16';100100;;;14;44
30343;BME280;17145;49.902;8.680;'2023-04-29 10:56:45';100100;;;13;45
30343;BME280;17145;49.902;8.680;'2023-04-29 10:59:14';100110;;;14;44
30343;BME280;17145;49.902;8.680;'2023-04-29 11:01:43';100110;;;13;45
30343;BME280;17145;49.902;8.680;'2023-04-29 11:04:19';100120;;;14;45
30343;BME280;17145;49.902;8.680;'2023-04-29 11:06:48';100120;;;14;45
30343;BME280;17145;49.902;8.680;'2023-04-29 11:09:15';100110;;;14;45
30343;BME280;17145;49.902;8.680;'2023-04-29 11:11:43';100110;;;14;45
30343;BME280;17145;49.902;8.680;'2023-04-29 11:14:11';100110;;;13;45
30343;BME280;17145;49.902;8.680;'2023-04-29 11:16:38';100120;;;14;46
30343;BME280;17145;49.902;8.680;'2023-04-29 11:19:06';100120;;;13;45
30343;BME280;17145;49.902;8.680;'2023-04-29 11:21:33';100120;;;13;45
30343;BME280;17145;49.902;8.680;'2023-04-29 11:24:02';100120;;;13;46
30343;BME280;17145;49.902;8.680;'2023-04-29 11:26:40';100120;;;14;45
30343;BME280;17145;49.902;8.680;'2023-04-29 11:29:09';100130;;;14;45
30343;BME280;17145;49.902;8.680;'2023-04-29 11:31:37';100130;;;13;45
30343;BME280;17145;49.902;8.680;'2023-04-29 11:34:04';100130;;;14;45
30343;BME280;17145;49.902;8.680;'2023-04-29 11:36:39';100130;;;13;45
30343;BME280;17145;49.902;8.680;'2023-04-29 11:39:07';100130;;;14;45
30343;BME280;17145;49.902;8.680;'2023-04-29 11:41:35';100140;;;14;45
30343;BME280;17145;49.902;8.680;'2023-04-29 11:44:03';100140;;;14;45
30343;BME280;17145;49.902;8.680;'2023-04-29 11:46:31';100140;;;14;46
30343;BME280;17145;49.902;8.680;'2023-04-29 11:48:59';100140;;;14;45
30343;BME280;17145;49.902;8.680;'2023-04-29 11:51:27';100140;;;14;45
30343;BME280;17145;49.902;8.680;'2023-04-29 11:53:54';100140;;;14;45
30343;BME280;17145;49.902;8.680;'2023-04-29 11:56:21';100140;;;14;46
30343;BME280;17145;49.902;8.680;'2023-04-29 11:58:49';100140;;;14;46
30343;BME280;17145;49.902;8.680;'2023-04-29 12:01:19';100150;;;14;45
30343;BME280;17145;49.902;8.680;'2023-04-29 12:03:47';100140;;;14;46
30343;BME280;17145;49.902;8.680;'2023-04-29 12:06:16';100150;;;14;45
30343;BME280;17145;49.902;8.680;'2023-04-29 12:08:46';100150;;;14;45
30343;BME280;17145;49.902;8.680;'2023-04-29 12:11:16';100150;;;14;45
30343;BME280;17145;49.902;8.680;'2023-04-29 12:13:44';100160;;;14;45
30343;BME280;17145;49.902;8.680;'2023-04-29 12:16:22';100160;;;14;44
30343;BME280;17145;49.902;8.680;'2023-04-29 12:18:53';100160;;;13;45
30343;BME280;17145;49.902;8.680;'2023-04-29 12:21:26';100160;;;13;45
30343;BME280;17145;49.902;8.680;'2023-04-29 12:23:57';100160;;;14;45
30343;BME280;17145;49.902;8.680;'2023-04-29 12:26:26';100160;;;14;46
30343;BME280;17145;49.902;8.680;'2023-04-29 12:28:55';100160;;;14;46
30343;BME280;17145;49.902;8.680;'2023-04-29 12:31:25';100160;;;14;46
30343;BME280;17145;49.902;8.680;'2023-04-29 12:33:56';100170;;;13;46
30343;BME280;17145;49.902;8.680;'2023-04-29 12:36:24';100170;;;14;45
30343;BME280;17145;49.902;8.680;'2023-04-29 12:38:55';100170;;;13;45
30343;BME280;17145;49.902;8.680;'2023-04-29 12:41:26';100170;;;14;45
30343;BME280;17145;49.902;8.680;'2023-04-29 12:43:54';100170;;;13;45
30343;BME280;17145;49.902;8.680;'2023-04-29 12:46:23';100170;;;14;45
30343;BME280;17145;49.902;8.680;'2023-04-29 12:48:55';100170;;;13;45
30343;BME280;17145;49.902;8.680;'2023-04-29 12:51:30';100180;;;13;45
30343;BME280;17145;49.902;8.680;'2023-04-29 12:53:59';100180;;;13;46
30343;BME280;17145;49.902;8.680;'2023-04-29 12:56:38';100180;;;13;46
30343;BME280;17145;49.902;8.680;'2023-04-29 12:59:09';100180;;;13;46
30343;BME280;17145;49.902;8.680;'2023-04-29 13:01:42';100180;;;13;46
30343;BME280;17145;49.902;8.680;'2023-04-29 13:04:10';100180;;;13;47
30343;BME280;17145;49.902;8.680;'2023-04-29 13:06:40';100170;;;13;47
30343;BME280;17145;49.902;8.680;'2023-04-29 13:09:11';100170;;;13;47
30343;BME280;17145;49.902;8.680;'2023-04-29 13:11:47';100170;;;13;46
30343;BME280;17145;49.902;8.680;'2023-04-29 13:14:20';100170;;;14;46
30343;BME280;17145;49.902;8.680;'2023-04-29 13:16:49';100170;;;13;47
30343;BME280;17145;49.902;8.680;'2023-04-29 13:19:17';100170;;;14;46
30343;BME280;17145;49.902;8.680;'2023-04-29 13:21:45';100170;;;13;46
30343;BME280;17145;49.902;8.680;'2023-04-29 13:24:14';100170;;;13;46
30343;BME280;17145;49.902;8.680;'2023-04-29 13:26:41';100170;;;13;46
30343;BME280;17145;49.902;8.680;'2023-04-29 13:29:08';100180;;;13;45
30343;BME280;17145;49.902;8.680;'2023-04-29 13:31:36';100180;;;14;45
30343;BME280;17145;49.902;8.680;'2023-04-29 13:34:04';100180;;;14;45
30343;BME280;17145;49.902;8.680;'2023-04-29 13:36:32';100180;;;14;45
30343;BME280;17145;49.902;8.680;'2023-04-29 13:39:00';100180;;;14;45
30343;BME280;17145;49.902;8.680;'2023-04-29 13:41:28';100180;;;13;45
30343;BME280;17145;49.902;8.680;'2023-04-29 13:43:57';100180;;;14;45
30343;BME280;17145;49.902;8.680;'2023-04-29 13:46:25';100180;;;14;45
30343;BME280;17145;49.902;8.680;'2023-04-29 13:48:52';100180;;;14;44
30343;BME280;17145;49.902;8.680;'2023-04-29 13:51:20';100180;;;14;45
30343;BME280;17145;49.902;8.680;'2023-04-29 13:53:47';100180;;;14;45
30343;BME280;17145;49.902;8.680;'2023-04-29 13:56:15';100180;;;14;44
30343;BME280;17145;49.902;8.680;'2023-04-29 13:58:42';100180;;;14;44
30343;BME280;17145;49.902;8.680;'2023-04-29 14:01:09';100180;;;14;42
30343;BME280;17145;49.902;8.680;'2023-04-29 14:03:37';100170;;;14;43
30343;BME280;17145;49.902;8.680;'2023-04-29 14:06:04';100170;;;15;43
30343;BME280;17145;49.902;8.680;'2023-04-29 14:08:31';100170;;;15;42
30343;BME280;17145;49.902;8.680;'2023-04-29 14:10:59';100160;;;15;42
30343;BME280;17145;49.902;8.680;'2023-04-29 14:13:29';100160;;;16;44
30343;BME280;17145;49.902;8.680;'2023-04-29 14:15:57';100160;;;16;40
30343;BME280;17145;49.902;8.680;'2023-04-29 14:18:25';100160;;;17;38
30343;BME280;17145;49.902;8.680;'2023-04-29 14:20:53';100160;;;17;38
30343;BME280;17145;49.902;8.680;'2023-04-29 14:23:22';100150;;;17;37
30343;BME280;17145;49.902;8.680;'2023-04-29 14:25:51';100150;;;18;38
30343;BME280;17145;49.902;8.680;'2023-04-29 14:28:19';100150;;;18;37
30343;BME280;17145;49.902;8.680;'2023-04-29 14:30:48';100160;;;18;35
30343;BME280;17145;49.902;8.680;'2023-04-29 14:33:19';100160;;;18;36
30343;BME280;17145;49.902;8.680;'2023-04-29 14:35:47';100150;;;18;35
30343;BME280;17145;49.902;8.680;'2023-04-29 14:38:19';100150;;;18;34
30343;BME280;17145;49.902;8.680;'2023-04-29 14:40:47';100150;;;18;35
30343;BME280;17145;49.902;8.680;'2023-04-29 14:43:14';100150;;;18;34
30343;BME280;17145;49.902;8.680;'2023-04-29 14:45:41';100150;;;18;36
30343;BME280;17145;49.902;8.680;'2023-04-29 14:48:11';100150;;;18;34
30343;BME280;17145;49.902;8.680;'2023-04-29 14:50:39';100150;;;18;34
30343;BME280;17145;49.902;8.680;'2023-04-29 14:53:07';100150;;;18;35
30343;BME280;17145;49.902;8.680;'2023-04-29 14:55:36';100150;;;18;37
30343;BME280;17145;49.902;8.680;'2023-04-29 14:58:04';100150;;;18;35
30343;BME280;17145;49.902;8.680;'2023-04-29 15:00:32';100160;;;17;36
30343;BME280;17145;49.902;8.680;'2023-04-29 15:02:59';100150;;;18;35
30343;BME280;17145;49.902;8.680;'2023-04-29 15:05:27';100160;;;17;35
30343;BME280;17145;49.902;8.680;'2023-04-29 15:07:55';100160;;;17;36
30343;BME280;17145;49.902;8.680;'2023-04-29 15:10:22';100150;;;17;36
30343;BME280;17145;49.902;8.680;'2023-04-29 15:12:50';100160;;;17;37
30343;BME280;17145;49.902;8.680;'2023-04-29 15:15:17';100160;;;16;37
30343;BME280;17145;49.902;8.680;'2023-04-29 15:17:45';100170;;;16;38
30343;BME280;17145;49.902;8.680;'2023-04-29 15:20:12';100170;;;16;38
30343;BME280;17145;49.902;8.680;'2023-04-29 15:22:40';100170;;;16;38
30343;BME280;17145;49.902;8.680;'2023-04-29 15:25:08';100170;;;16;39
30343;BME280;17145;49.902;8.680;'2023-04-29 15:27:35';100170;;;16;39
30343;BME280;17145;49.902;8.680;'2023-04-29 15:30:03';100170;;;16;38
30343;BME280;17145;49.902;8.680;'2023-04-29 15:32:31';100170;;;16;39
30343;BME280;17145;49.902;8.680;'2023-04-29 15:34:58';100170;;;16;39
30343;BME280;17145;49.902;8.680;'2023-04-29 15:37:26';100180;;;16;40
30343;BME280;17145;49.902;8.680;'2023-04-29 15:39:53';100170;;;16;40
30343;BME280;17145;49.902;8.680;'2023-04-29 15:42:20';100180;;;16;39
30343;BME280;17145;49.902;8.680;'2023-04-29 15:44:48';100180;;;15;39
30343;BME280;17145;49.902;8.680;'2023-04-29 15:47:16';100180;;;16;39
30343;BME280;17145;49.902;8.680;'2023-04-29 15:49:43';100180;;;15;39
30343;BME280;17145;49.902;8.680;'2023-04-29 15:52:11';100180;;;15;40
30343;BME280;17145;49.902;8.680;'2023-04-29 15:54:39';100180;;;15;40
30343;BME280;17145;49.902;8.680;'2023-04-29 15:57:06';100180;;;15;40
30343;BME280;17145;49.902;8.680;'2023-04-29 15:59:34';100180;;;15;41
30343;BME280;17145;49.902;8.680;'2023-04-29 16:02:02';100180;;;15;41
30343;BME280;17145;49.902;8.680;'2023-04-29 16:04:29';100190;;;15;41
30343;BME280;17145;49.902;8.680;'2023-04-29 16:06:56';100190;;;15;42
30343;BME280;17145;49.902;8.680;'2023-04-29 16:09:24';100190;;;15;42
30343;BME280;17145;49.902;8.680;'2023-04-29 16:11:51';100190;;;15;42
30343;BME280;17145;49.902;8.680;'2023-04-29 16:14:18';100190;;;15;42
30343;BME280;17145;49.902;8.680;'2023-04-29 16:16:46';100190;;;15;42